sensor_id;sensor_type;location;lat;lon;timestamp;pressure;altitude;pressure_sealevel;temperature;humidity
54882;BME280;40775;51.448;4.742;2023-04-25T00:00:15;101086.84;;;7.97;100.00
54882;BME280;40775;51.448;4.742;2023-04-25T00:02:42;101085.84;;;7.93;100.00
54882;BME280;40775;51.448;4.742;2023-04-25T00:05:09;101094.66;;;7.95;100.00
54882;BME280;40775;51.448;4.742;2023-04-25T00:07:38;101083.16;;;7.92;100.00
54882;BME280;40775;51.448;4.742;2023-04-25T00:10:06;101081.63;;;7.97;100.00
54882;BME280;40775;51.448;4.742;2023-04-25T00:12:33;101078.88;;;7.94;100.00
54882;BME280;40775;51.448;4.742;2023-04-25T00:15:00;101077.09;;;7.93;100.00
54882;BME280;40775;51.448;4.742;2023-04-25T00:17:27;101077.75;;;7.86;100.00
54882;BME280;40775;51.448;4.742;2023-04-25T00:19:54;101078.47;;;7.82;100.00
54882;BME280;40775;51.448;4.742;2023-04-25T00:22:22;101085.41;;;7.81;100.00
54882;BME280;40775;51.448;4.742;2023-04-25T00:24:49;101086.31;;;7.82;100.00
54882;BME280;40775;51.448;4.742;2023-04-25T00:27:17;101089.75;;;7.81;100.00
54882;BME280;40775;51.448;4.742;2023-04-25T00:29:44;101085.47;;;7.83;100.00
54882;BME280;40775;51.448;4.742;2023-04-25T00:32:11;101089.75;;;7.81;100.00
54882;BME280;40775;51.448;4.742;2023-04-25T00:34:38;101092.28;;;7.78;100.00
54882;BME280;40775;51.448;4.742;2023-04-25T00:37:05;101093.72;;;7.69;100.00
54882;BME280;40775;51.448;4.742;2023-04-25T00:39:32;101096.09;;;7.63;100.00
54882;BME280;40775;51.448;4.742;2023-04-25T00:42:00;101095.41;;;7.67;100.00
54882;BME280;40775;51.448;4.742;2023-04-25T00:44:30;101089.09;;;7.62;100.00
54882;BME280;40775;51.448;4.742;2023-04-25T00:47:00;101091.53;;;7.58;100.00
54882;BME280;40775;51.448;4.742;2023-04-25T00:49:29;101089.56;;;7.51;100.00
54882;BME280;40775;51.448;4.742;2023-04-25T00:51:56;101089.56;;;7.51;100.00
54882;BME280;40775;51.448;4.742;2023-04-25T00:54:23;101092.09;;;7.49;100.00
54882;BME280;40775;51.448;4.742;2023-04-25T00:56:51;101098.94;;;7.46;100.00
54882;BME280;40775;51.448;4.742;2023-04-25T00:59:19;101087.63;;;7.45;100.00
54882;BME280;40775;51.448;4.742;2023-04-25T01:01:47;101093.56;;;7.41;100.00
54882;BME280;40775;51.448;4.742;2023-04-25T01:04:14;101094.31;;;7.38;100.00
54882;BME280;40775;51.448;4.742;2023-04-25T01:06:42;101095.91;;;7.35;100.00
54882;BME280;40775;51.448;4.742;2023-04-25T01:09:09;101089.75;;;7.33;100.00
54882;BME280;40775;51.448;4.742;2023-04-25T01:11:37;101094.13;;;7.34;100.00
54882;BME280;40775;51.448;4.742;2023-04-25T01:14:04;101088.25;;;7.39;100.00
54882;BME280;40775;51.448;4.742;2023-04-25T01:16:31;101088.03;;;7.33;100.00
54882;BME280;40775;51.448;4.742;2023-04-25T01:19:00;101089.91;;;7.37;100.00
54882;BME280;40775;51.448;4.742;2023-04-25T01:21:27;101097.22;;;7.46;100.00
54882;BME280;40775;51.448;4.742;2023-04-25T01:23:57;101094.41;;;7.40;100.00
54882;BME280;40775;51.448;4.742;2023-04-25T01:26:25;101097.94;;;7.42;100.00
54882;BME280;40775;51.448;4.742;2023-04-25T01:28:52;101096.16;;;7.41;100.00
54882;BME280;40775;51.448;4.742;2023-04-25T01:31:19;101103.28;;;7.45;100.00
54882;BME280;40775;51.448;4.742;2023-04-25T01:33:47;101101.44;;;7.42;100.00
54882;BME280;40775;51.448;4.742;2023-04-25T01:36:15;101105.84;;;7.43;100.00
54882;BME280;40775;51.448;4.742;2023-04-25T01:38:43;101105.16;;;7.49;100.00
54882;BME280;40775;51.448;4.742;2023-04-25T01:41:10;101102.44;;;7.46;100.00
54882;BME280;40775;51.448;4.742;2023-04-25T01:43:38;101107.69;;;7.46;100.00
54882;BME280;40775;51.448;4.742;2023-04-25T01:46:05;101116.34;;;7.45;100.00
54882;BME280;40775;51.448;4.742;2023-04-25T01:48:32;101120.56;;;7.41;100.00
54882;BME280;40775;51.448;4.742;2023-04-25T01:50:59;101118.00;;;7.43;100.00
54882;BME280;40775;51.448;4.742;2023-04-25T01:53:26;101116.44;;;7.48;100.00
54882;BME280;40775;51.448;4.742;2023-04-25T01:55:54;101123.34;;;7.46;100.00
54882;BME280;40775;51.448;4.742;2023-04-25T01:58:21;101131.34;;;7.51;100.00
54882;BME280;40775;51.448;4.742;2023-04-25T02:00:48;101125.13;;;7.47;100.00
54882;BME280;40775;51.448;4.742;2023-04-25T02:03:15;101131.25;;;7.48;100.00
54882;BME280;40775;51.448;4.742;2023-04-25T02:05:42;101123.47;;;7.49;100.00
54882;BME280;40775;51.448;4.742;2023-04-25T02:08:09;101127.78;;;7.49;100.00
54882;BME280;40775;51.448;4.742;2023-04-25T02:10:36;101134.91;;;7.53;100.00
54882;BME280;40775;51.448;4.742;2023-04-25T02:13:03;101138.25;;;7.49;100.00
54882;BME280;40775;51.448;4.742;2023-04-25T02:15:32;101130.47;;;7.50;100.00
54882;BME280;40775;51.448;4.742;2023-04-25T02:17:59;101134.78;;;7.50;100.00
54882;BME280;40775;51.448;4.742;2023-04-25T02:20:28;101127.00;;;7.51;100.00
54882;BME280;40775;51.448;4.742;2023-04-25T02:22:56;101137.47;;;7.51;100.00
54882;BME280;40775;51.448;4.742;2023-04-25T02:25:23;101134.84;;;7.51;100.00
54882;BME280;40775;51.448;4.742;2023-04-25T02:27:50;101137.56;;;7.54;100.00
54882;BME280;40775;51.448;4.742;2023-04-25T02:30:18;101141.06;;;7.55;100.00
54882;BME280;40775;51.448;4.742;2023-04-25T02:32:45;101140.13;;;7.53;100.00
54882;BME280;40775;51.448;4.742;2023-04-25T02:35:13;101134.13;;;7.55;100.00
54882;BME280;40775;51.448;4.742;2023-04-25T02:37:40;101138.34;;;7.52;100.00
54882;BME280;40775;51.448;4.742;2023-04-25T02:40:08;101135.00;;;7.56;100.00
54882;BME280;40775;51.448;4.742;2023-04-25T02:42:35;101144.56;;;7.55;100.00
54882;BME280;40775;51.448;4.742;2023-04-25T02:45:03;101141.03;;;7.53;100.00
54882;BME280;40775;51.448;4.742;2023-04-25T02:47:30;101142.78;;;7.54;100.00
54882;BME280;40775;51.448;4.742;2023-04-25T02:49:57;101137.56;;;7.54;100.00
54882;BME280;40775;51.448;4.742;2023-04-25T02:52:25;101147.91;;;7.51;100.00
54882;BME280;40775;51.448;4.742;2023-04-25T02:54:52;101147.91;;;7.51;100.00
54882;BME280;40775;51.448;4.742;2023-04-25T02:57:19;101134.00;;;7.52;100.00
54882;BME280;40775;51.448;4.742;2023-04-25T02:59:46;101135.78;;;7.53;100.00
54882;BME280;40775;51.448;4.742;2023-04-25T03:02:13;101146.13;;;7.50;100.00
54882;BME280;40775;51.448;4.742;2023-04-25T03:04:40;101134.84;;;7.51;100.00
54882;BME280;40775;51.448;4.742;2023-04-25T03:07:07;101150.53;;;7.51;100.00
54882;BME280;40775;51.448;4.742;2023-04-25T03:09:34;101150.56;;;7.53;100.00
54882;BME280;40775;51.448;4.742;2023-04-25T03:12:02;101149.69;;;7.52;100.00
54882;BME280;40775;51.448;4.742;2023-04-25T03:14:29;101144.56;;;7.55;100.00
54882;BME280;40775;51.448;4.742;2023-04-25T03:16:56;101147.19;;;7.55;100.00
54882;BME280;40775;51.448;4.742;2023-04-25T03:19:23;101141.97;;;7.55;100.00
54882;BME280;40775;51.448;4.742;2023-04-25T03:21:50;101139.34;;;7.55;100.00
54882;BME280;40775;51.448;4.742;2023-04-25T03:24:17;101143.75;;;7.56;100.00
54882;BME280;40775;51.448;4.742;2023-04-25T03:26:44;101145.47;;;7.56;100.00
54882;BME280;40775;51.448;4.742;2023-04-25T03:29:12;101142.06;;;7.58;100.00
54882;BME280;40775;51.448;4.742;2023-04-25T03:31:38;101148.19;;;7.59;100.00
54882;BME280;40775;51.448;4.742;2023-04-25T03:34:06;101147.28;;;7.58;100.00
54882;BME280;40775;51.448;4.742;2023-04-25T03:36:33;101146.47;;;7.59;100.00
54882;BME280;40775;51.448;4.742;2023-04-25T03:39:00;101142.13;;;7.60;100.00
54882;BME280;40775;51.448;4.742;2023-04-25T03:41:27;101142.13;;;7.60;100.00
54882;BME280;40775;51.448;4.742;2023-04-25T03:43:54;101147.41;;;7.61;100.00
54882;BME280;40775;51.448;4.742;2023-04-25T03:46:21;101150.78;;;7.59;100.00
54882;BME280;40775;51.448;4.742;2023-04-25T03:48:48;101153.47;;;7.60;100.00
54882;BME280;40775;51.448;4.742;2023-04-25T03:51:15;101151.69;;;7.59;100.00
54882;BME280;40775;51.448;4.742;2023-04-25T03:53:42;101146.50;;;7.61;100.00
54882;BME280;40775;51.448;4.742;2023-04-25T03:56:10;101149.19;;;7.62;100.00
54882;BME280;40775;51.448;4.742;2023-04-25T03:58:37;101155.25;;;7.61;100.00
54882;BME280;40775;51.448;4.742;2023-04-25T04:01:04;101157.03;;;7.62;100.00
54882;BME280;40775;51.448;4.742;2023-04-25T04:03:35;101153.56;;;7.63;100.00
54882;BME280;40775;51.448;4.742;2023-04-25T04:06:06;101155.50;;;7.67;100.00
54882;BME280;40775;51.448;4.742;2023-04-25T04:08:34;101164.13;;;7.66;100.00
54882;BME280;40775;51.448;4.742;2023-04-25T04:11:01;101167.59;;;7.65;100.00
54882;BME280;40775;51.448;4.742;2023-04-25T04:13:29;101165.03;;;7.67;100.00
54882;BME280;40775;51.448;4.742;2023-04-25T04:15:56;101167.78;;;7.70;100.00
54882;BME280;40775;51.448;4.742;2023-04-25T04:18:27;101162.56;;;7.70;100.00
54882;BME280;40775;51.448;4.742;2023-04-25T04:20:54;101167.06;;;7.74;100.00
54882;BME280;40775;51.448;4.742;2023-04-25T04:23:21;101167.94;;;7.74;100.00
54882;BME280;40775;51.448;4.742;2023-04-25T04:25:49;101163.66;;;7.77;100.00
54882;BME280;40775;51.448;4.742;2023-04-25T04:28:16;101156.72;;;7.77;100.00
54882;BME280;40775;51.448;4.742;2023-04-25T04:30:44;101165.34;;;7.74;100.00
54882;BME280;40775;51.448;4.742;2023-04-25T04:33:13;101169.78;;;7.77;100.00
54882;BME280;40775;51.448;4.742;2023-04-25T04:35:43;101177.69;;;7.79;100.00
54882;BME280;40775;51.448;4.742;2023-04-25T04:38:10;101175.91;;;7.78;100.00
54882;BME280;40775;51.448;4.742;2023-04-25T04:40:38;101186.06;;;7.70;100.00
54882;BME280;40775;51.448;4.742;2023-04-25T04:43:05;101188.75;;;7.71;100.00
54882;BME280;40775;51.448;4.742;2023-04-25T04:45:32;101186.72;;;7.64;100.00
54882;BME280;40775;51.448;4.742;2023-04-25T04:48:00;101180.44;;;7.59;100.00
54882;BME280;40775;51.448;4.742;2023-04-25T04:50:27;101191.09;;;7.65;100.00
54882;BME280;40775;51.448;4.742;2023-04-25T04:52:55;101196.88;;;7.57;100.00
54882;BME280;40775;51.448;4.742;2023-04-25T04:55:22;101201.38;;;7.61;100.00
54882;BME280;40775;51.448;4.742;2023-04-25T04:57:49;101197.66;;;7.54;100.00
54882;BME280;40775;51.448;4.742;2023-04-25T05:00:17;101202.06;;;7.55;100.00
54882;BME280;40775;51.448;4.742;2023-04-25T05:02:45;101203.00;;;7.57;100.00
54882;BME280;40775;51.448;4.742;2023-04-25T05:05:15;101212.50;;;7.55;100.00
54882;BME280;40775;51.448;4.742;2023-04-25T05:07:42;101216.88;;;7.56;100.00
54882;BME280;40775;51.448;4.742;2023-04-25T05:10:10;101224.72;;;7.56;100.00
54882;BME280;40775;51.448;4.742;2023-04-25T05:12:37;101224.84;;;7.59;100.00
54882;BME280;40775;51.448;4.742;2023-04-25T05:15:05;101224.84;;;7.59;100.00
54882;BME280;40775;51.448;4.742;2023-04-25T05:17:32;101221.41;;;7.60;100.00
54882;BME280;40775;51.448;4.742;2023-04-25T05:19:59;101228.41;;;7.61;100.00
54882;BME280;40775;51.448;4.742;2023-04-25T05:22:26;101241.53;;;7.63;100.00
54882;BME280;40775;51.448;4.742;2023-04-25T05:24:53;101246.88;;;7.66;100.00
54882;BME280;40775;51.448;4.742;2023-04-25T05:27:22;101242.66;;;7.69;100.00
54882;BME280;40775;51.448;4.742;2023-04-25T05:29:49;101254.00;;;7.70;100.00
54882;BME280;40775;51.448;4.742;2023-04-25T05:32:16;101248.91;;;7.73;100.00
54882;BME280;40775;51.448;4.742;2023-04-25T05:34:43;101254.19;;;7.74;100.00
54882;BME280;40775;51.448;4.742;2023-04-25T05:37:10;101255.25;;;7.80;100.00
54882;BME280;40775;51.448;4.742;2023-04-25T05:39:37;101256.25;;;7.83;100.00
54882;BME280;40775;51.448;4.742;2023-04-25T05:42:04;101255.47;;;7.86;100.00
54882;BME280;40775;51.448;4.742;2023-04-25T05:44:32;101253.84;;;7.89;100.00
54882;BME280;40775;51.448;4.742;2023-04-25T05:46:59;101260.06;;;9.99;100.00
54882;BME280;40775;51.448;4.742;2023-04-25T05:49:26;101250.22;;;11.56;100.00
54882;BME280;40775;51.448;4.742;2023-04-25T05:51:53;101253.13;;;12.52;100.00
54882;BME280;40775;51.448;4.742;2023-04-25T05:54:20;101264.44;;;12.47;100.00
54882;BME280;40775;51.448;4.742;2023-04-25T05:56:47;101255.84;;;12.57;100.00
54882;BME280;40775;51.448;4.742;2023-04-25T05:59:14;101262.38;;;13.27;100.00
54882;BME280;40775;51.448;4.742;2023-04-25T06:01:41;101276.19;;;13.68;100.00
54882;BME280;40775;51.448;4.742;2023-04-25T06:04:08;101268.56;;;13.89;100.00
54882;BME280;40775;51.448;4.742;2023-04-25T06:06:36;101255.63;;;14.08;100.00
54882;BME280;40775;51.448;4.742;2023-04-25T06:09:03;101261.94;;;14.20;100.00
54882;BME280;40775;51.448;4.742;2023-04-25T06:11:30;101259.44;;;14.31;100.00
54882;BME280;40775;51.448;4.742;2023-04-25T06:13:57;101257.75;;;14.39;100.00
54882;BME280;40775;51.448;4.742;2023-04-25T06:16:24;101269.31;;;14.46;100.00
54882;BME280;40775;51.448;4.742;2023-04-25T06:18:53;101269.41;;;14.52;100.00
54882;BME280;40775;51.448;4.742;2023-04-25T06:21:20;101278.25;;;14.57;100.00
54882;BME280;40775;51.448;4.742;2023-04-25T06:23:47;101272.13;;;14.61;100.00
54882;BME280;40775;51.448;4.742;2023-04-25T06:26:15;101273.94;;;14.67;100.00
54882;BME280;40775;51.448;4.742;2023-04-25T06:28:42;101269.59;;;14.72;100.00
54882;BME280;40775;51.448;4.742;2023-04-25T06:31:09;101263.47;;;14.76;100.00
54882;BME280;40775;51.448;4.742;2023-04-25T06:33:36;101268.78;;;14.79;100.00
54882;BME280;40775;51.448;4.742;2023-04-25T06:36:04;101264.44;;;14.82;100.00
54882;BME280;40775;51.448;4.742;2023-04-25T06:38:31;101269.75;;;14.86;100.00
54882;BME280;40775;51.448;4.742;2023-04-25T06:40:58;101272.41;;;14.90;100.00
54882;BME280;40775;51.448;4.742;2023-04-25T06:43:25;101279.50;;;14.93;100.00
54882;BME280;40775;51.448;4.742;2023-04-25T06:45:52;101289.22;;;14.95;100.00
54882;BME280;40775;51.448;4.742;2023-04-25T06:48:19;101291.88;;;14.98;100.00
54882;BME280;40775;51.448;4.742;2023-04-25T06:50:46;101294.53;;;14.98;100.00
54882;BME280;40775;51.448;4.742;2023-04-25T06:53:13;101289.25;;;15.01;100.00
54882;BME280;40775;51.448;4.742;2023-04-25T06:55:40;101299.84;;;15.01;100.00
54882;BME280;40775;51.448;4.742;2023-04-25T06:58:07;101306.03;;;15.03;100.00
54882;BME280;40775;51.448;4.742;2023-04-25T07:00:34;101306.91;;;15.05;100.00
54882;BME280;40775;51.448;4.742;2023-04-25T07:03:03;101310.50;;;15.07;100.00
54882;BME280;40775;51.448;4.742;2023-04-25T07:05:30;101310.50;;;15.07;100.00
54882;BME280;40775;51.448;4.742;2023-04-25T07:07:57;101314.03;;;15.08;100.00
54882;BME280;40775;51.448;4.742;2023-04-25T07:10:24;101322.00;;;15.12;100.00
54882;BME280;40775;51.448;4.742;2023-04-25T07:12:52;101324.63;;;15.12;100.00
54882;BME280;40775;51.448;4.742;2023-04-25T07:15:34;101319.38;;;15.15;100.00
54882;BME280;40775;51.448;4.742;2023-04-25T07:18:01;101327.31;;;15.15;100.00
54882;BME280;40775;51.448;4.742;2023-04-25T07:20:28;101328.22;;;15.18;100.00
54882;BME280;40775;51.448;4.742;2023-04-25T07:22:57;101332.56;;;15.12;100.00
54882;BME280;40775;51.448;4.742;2023-04-25T07:25:24;101336.16;;;15.19;100.00
54882;BME280;40775;51.448;4.742;2023-04-25T07:27:51;101324.69;;;15.17;100.00
54882;BME280;40775;51.448;4.742;2023-04-25T07:30:19;101329.09;;;15.20;100.00
54882;BME280;40775;51.448;4.742;2023-04-25T07:32:45;101329.09;;;15.17;100.00
54882;BME280;40775;51.448;4.742;2023-04-25T07:35:13;101329.88;;;15.08;100.00
54882;BME280;40775;51.448;4.742;2023-04-25T07:37:40;101330.78;;;15.08;100.00
54882;BME280;40775;51.448;4.742;2023-04-25T07:40:07;101333.53;;;15.24;100.00
54882;BME280;40775;51.448;4.742;2023-04-25T07:42:36;101335.34;;;15.28;100.00
54882;BME280;40775;51.448;4.742;2023-04-25T07:45:03;101334.47;;;15.27;100.00
54882;BME280;40775;51.448;4.742;2023-04-25T07:47:31;101335.31;;;15.26;100.00
54882;BME280;40775;51.448;4.742;2023-04-25T07:49:58;101339.72;;;15.24;100.00
54882;BME280;40775;51.448;4.742;2023-04-25T07:52:25;101346.78;;;15.24;100.00
54882;BME280;40775;51.448;4.742;2023-04-25T07:54:52;101349.38;;;15.19;100.00
54882;BME280;40775;51.448;4.742;2023-04-25T07:57:19;101347.59;;;15.18;100.00
54882;BME280;40775;51.448;4.742;2023-04-25T07:59:47;101356.41;;;15.17;100.00
54882;BME280;40775;51.448;4.742;2023-04-25T08:02:14;101359.94;;;15.18;100.00
54882;BME280;40775;51.448;4.742;2023-04-25T08:04:41;101364.28;;;15.11;100.00
54882;BME280;40775;51.448;4.742;2023-04-25T08:07:08;101373.03;;;15.05;100.00
54882;BME280;40775;51.448;4.742;2023-04-25T08:09:36;101380.16;;;15.11;100.00
54882;BME280;40775;51.448;4.742;2023-04-25T08:12:04;101395.13;;;15.07;100.00
54882;BME280;40775;51.448;4.742;2023-04-25T08:33:28;101410.19;;;15.18;100.00
54882;BME280;40775;51.448;4.742;2023-04-25T08:35:55;101410.25;;;15.22;100.00
54882;BME280;40775;51.448;4.742;2023-04-25T08:38:22;101419.97;;;15.26;100.00
54882;BME280;40775;51.448;4.742;2023-04-25T08:40:50;101431.44;;;15.27;100.00
54882;BME280;40775;51.448;4.742;2023-04-25T08:43:20;101435.84;;;15.26;100.00
54882;BME280;40775;51.448;4.742;2023-04-25T08:45:47;101429.66;;;15.26;100.00
54882;BME280;40775;51.448;4.742;2023-04-25T08:48:16;101429.84;;;14.65;100.00
54882;BME280;40775;51.448;4.742;2023-04-25T08:50:52;101438.34;;;15.12;100.00
54882;BME280;40775;51.448;4.742;2023-04-25T08:53:26;101451.66;;;15.20;100.00
54882;BME280;40775;51.448;4.742;2023-04-25T08:55:56;101449.50;;;14.86;100.00
54882;BME280;40775;51.448;4.742;2023-04-25T08:58:24;101448.13;;;13.96;100.00
54882;BME280;40775;51.448;4.742;2023-04-25T09:00:52;101451.06;;;13.59;100.00
54882;BME280;40775;51.448;4.742;2023-04-25T09:03:19;101458.06;;;14.09;100.00
54882;BME280;40775;51.448;4.742;2023-04-25T09:05:47;101453.53;;;14.58;100.00
54882;BME280;40775;51.448;4.742;2023-04-25T09:08:14;101460.81;;;14.77;100.00
54882;BME280;40775;51.448;4.742;2023-04-25T09:10:42;101467.13;;;14.87;100.00
54882;BME280;40775;51.448;4.742;2023-04-25T09:13:25;101465.66;;;15.10;100.00
54882;BME280;40775;51.448;4.742;2023-04-25T09:15:56;101478.88;;;15.08;100.00
54882;BME280;40775;51.448;4.742;2023-04-25T09:18:31;101476.84;;;14.88;100.00
54882;BME280;40775;51.448;4.742;2023-04-25T09:21:06;101470.56;;;14.22;100.00
54882;BME280;40775;51.448;4.742;2023-04-25T09:23:47;101473.34;;;14.30;100.00
54882;BME280;40775;51.448;4.742;2023-04-25T09:26:18;101480.44;;;14.94;100.00
54882;BME280;40775;51.448;4.742;2023-04-25T09:28:46;101475.44;;;15.19;100.00
54882;BME280;40775;51.448;4.742;2023-04-25T09:31:24;101472.91;;;15.28;100.00
54882;BME280;40775;51.448;4.742;2023-04-25T09:34:02;101481.75;;;15.33;100.00
54882;BME280;40775;51.448;4.742;2023-04-25T09:36:30;101472.72;;;15.11;100.00
54882;BME280;40775;51.448;4.742;2023-04-25T09:38:59;101478.03;;;15.12;100.00
54882;BME280;40775;51.448;4.742;2023-04-25T09:41:27;101474.63;;;15.24;100.00
54882;BME280;40775;51.448;4.742;2023-04-25T09:43:57;101475.44;;;15.19;100.00
54882;BME280;40775;51.448;4.742;2023-04-25T09:46:34;101483.34;;;14.50;100.00
54882;BME280;40775;51.448;4.742;2023-04-25T09:49:07;101486.81;;;15.10;100.00
54882;BME280;40775;51.448;4.742;2023-04-25T09:51:35;101487.00;;;15.28;100.00
54882;BME280;40775;51.448;4.742;2023-04-25T09:54:02;101496.28;;;14.93;100.00
54882;BME280;40775;51.448;4.742;2023-04-25T09:56:34;101507.28;;;14.05;100.00
54882;BME280;40775;51.448;4.742;2023-04-25T09:59:03;101501.81;;;13.96;96.16
54882;BME280;40775;51.448;4.742;2023-04-25T10:01:30;101505.03;;;14.30;92.97
54882;BME280;40775;51.448;4.742;2023-04-25T10:03:58;101517.41;;;14.91;100.00
54882;BME280;40775;51.448;4.742;2023-04-25T10:06:27;101517.59;;;15.06;100.00
54882;BME280;40775;51.448;4.742;2023-04-25T10:08:56;101517.28;;;14.80;100.00
54882;BME280;40775;51.448;4.742;2023-04-25T10:11:25;101516.94;;;14.58;95.01
54882;BME280;40775;51.448;4.742;2023-04-25T10:13:53;101510.03;;;14.13;91.62
54882;BME280;40775;51.448;4.742;2023-04-25T10:16:20;101511.59;;;13.52;86.45
54882;BME280;40775;51.448;4.742;2023-04-25T10:18:48;101505.44;;;13.51;85.66
54882;BME280;40775;51.448;4.742;2023-04-25T10:21:18;101501.22;;;14.12;91.68
54882;BME280;40775;51.448;4.742;2023-04-25T10:23:47;101505.81;;;14.80;100.00
54882;BME280;40775;51.448;4.742;2023-04-25T10:26:15;101506.50;;;14.67;100.00
54882;BME280;40775;51.448;4.742;2023-04-25T10:29:01;101518.06;;;13.69;97.33
54882;BME280;40775;51.448;4.742;2023-04-25T10:31:30;101514.09;;;13.44;96.92
54882;BME280;40775;51.448;4.742;2023-04-25T10:33:59;101523.63;;;13.84;100.00
54882;BME280;40775;51.448;4.742;2023-04-25T10:36:31;101518.13;;;14.23;100.00
54882;BME280;40775;51.448;4.742;2023-04-25T10:39:04;101525.94;;;14.70;100.00
54882;BME280;40775;51.448;4.742;2023-04-25T10:42:06;101529.63;;;14.80;99.07
54882;BME280;40775;51.448;4.742;2023-04-25T10:44:34;101523.81;;;15.07;100.00
54882;BME280;40775;51.448;4.742;2023-04-25T10:47:03;101522.13;;;14.51;84.93
54882;BME280;40775;51.448;4.742;2023-04-25T10:49:42;101517.97;;;14.69;90.17
54882;BME280;40775;51.448;4.742;2023-04-25T10:52:26;101521.38;;;14.06;82.79
54882;BME280;40775;51.448;4.742;2023-04-25T10:54:56;101529.84;;;14.41;83.68
54882;BME280;40775;51.448;4.742;2023-04-25T10:57:31;101528.53;;;12.80;91.53
54882;BME280;40775;51.448;4.742;2023-04-25T11:00:18;101544.34;;;12.06;100.00
54882;BME280;40775;51.448;4.742;2023-04-25T11:03:07;101517.19;;;12.84;100.00
54882;BME280;40775;51.448;4.742;2023-04-25T11:05:36;101528.44;;;12.03;100.00
54882;BME280;40775;51.448;4.742;2023-04-25T11:08:49;101527.53;;;11.70;100.00
54882;BME280;40775;51.448;4.742;2023-04-25T11:11:17;101529.72;;;11.83;100.00
54882;BME280;40775;51.448;4.742;2023-04-25T11:13:49;101525.59;;;12.66;100.00
54882;BME280;40775;51.448;4.742;2023-04-25T11:16:17;101521.84;;;12.57;100.00
54882;BME280;40775;51.448;4.742;2023-04-25T11:18:56;101528.66;;;12.86;100.00
54882;BME280;40775;51.448;4.742;2023-04-25T11:21:24;101528.03;;;12.59;100.00
54882;BME280;40775;51.448;4.742;2023-04-25T11:23:55;101537.91;;;12.31;100.00
54882;BME280;40775;51.448;4.742;2023-04-25T11:26:24;101534.69;;;12.81;100.00
54882;BME280;40775;51.448;4.742;2023-04-25T11:28:51;101528.16;;;12.63;100.00
54882;BME280;40775;51.448;4.742;2023-04-25T11:31:21;101531.94;;;12.75;100.00
54882;BME280;40775;51.448;4.742;2023-04-25T11:33:49;101543.53;;;12.45;100.00
54882;BME280;40775;51.448;4.742;2023-04-25T11:36:16;101538.22;;;12.81;100.00
54882;BME280;40775;51.448;4.742;2023-04-25T11:38:43;101542.16;;;13.00;100.00
54882;BME280;40775;51.448;4.742;2023-04-25T11:41:11;101528.03;;;13.85;100.00
54882;BME280;40775;51.448;4.742;2023-04-25T11:43:38;101540.69;;;13.14;100.00
54882;BME280;40775;51.448;4.742;2023-04-25T11:46:08;101538.25;;;12.83;100.00
54882;BME280;40775;51.448;4.742;2023-04-25T11:48:42;101550.03;;;13.39;100.00
54882;BME280;40775;51.448;4.742;2023-04-25T11:51:10;101546.03;;;13.59;100.00
54882;BME280;40775;51.448;4.742;2023-04-25T11:53:41;101535.34;;;13.52;100.00
54882;BME280;40775;51.448;4.742;2023-04-25T11:56:10;101536.44;;;13.65;100.00
54882;BME280;40775;51.448;4.742;2023-04-25T11:59:04;101542.41;;;13.12;100.00
54882;BME280;40775;51.448;4.742;2023-04-25T12:01:39;101543.69;;;13.29;100.00
54882;BME280;40775;51.448;4.742;2023-04-25T12:04:13;101543.25;;;13.52;100.00
54882;BME280;40775;51.448;4.742;2023-04-25T12:06:42;101541.13;;;13.34;100.00
54882;BME280;40775;51.448;4.742;2023-04-25T12:09:11;101545.94;;;14.02;100.00
54882;BME280;40775;51.448;4.742;2023-04-25T12:11:48;101542.88;;;13.34;100.00
54882;BME280;40775;51.448;4.742;2023-04-25T12:14:33;101551.81;;;13.87;100.00
54882;BME280;40775;51.448;4.742;2023-04-25T12:17:03;101557.06;;;13.40;100.00
54882;BME280;40775;51.448;4.742;2023-04-25T12:19:36;101551.47;;;13.69;100.00
54882;BME280;40775;51.448;4.742;2023-04-25T12:22:22;101558.34;;;13.59;100.00
54882;BME280;40775;51.448;4.742;2023-04-25T12:24:50;101561.66;;;13.49;100.00
54882;BME280;40775;51.448;4.742;2023-04-25T12:27:19;101559.09;;;13.52;100.00
54882;BME280;40775;51.448;4.742;2023-04-25T12:29:55;101548.00;;;13.70;100.00
54882;BME280;40775;51.448;4.742;2023-04-25T12:32:23;101549.88;;;13.32;100.00
54882;BME280;40775;51.448;4.742;2023-04-25T12:34:50;101554.53;;;13.91;100.00
54882;BME280;40775;51.448;4.742;2023-04-25T12:37:17;101560.88;;;13.54;100.00
54882;BME280;40775;51.448;4.742;2023-04-25T12:39:44;101569.81;;;13.17;100.00
54882;BME280;40775;51.448;4.742;2023-04-25T12:42:11;101554.78;;;14.04;100.00
54882;BME280;40775;51.448;4.742;2023-04-25T12:44:39;101558.34;;;14.06;100.00
54882;BME280;40775;51.448;4.742;2023-04-25T12:47:07;101554.91;;;14.64;100.00
54882;BME280;40775;51.448;4.742;2023-04-25T12:49:34;101571.03;;;13.35;100.00
54882;BME280;40775;51.448;4.742;2023-04-25T12:52:01;101571.34;;;13.50;100.00
54882;BME280;40775;51.448;4.742;2023-04-25T12:54:29;101566.03;;;13.47;100.00
54882;BME280;40775;51.448;4.742;2023-04-25T12:56:56;101568.75;;;13.51;100.00
54882;BME280;40775;51.448;4.742;2023-04-25T12:59:23;101568.41;;;13.36;100.00
54882;BME280;40775;51.448;4.742;2023-04-25T13:01:51;101567.75;;;13.45;100.00
54882;BME280;40775;51.448;4.742;2023-04-25T13:04:18;101576.06;;;13.22;100.00
54882;BME280;40775;51.448;4.742;2023-04-25T13:06:48;101555.25;;;13.81;100.00
54882;BME280;40775;51.448;4.742;2023-04-25T13:09:16;101570.28;;;13.85;100.00
54882;BME280;40775;51.448;4.742;2023-04-25T13:11:43;101562.78;;;14.60;100.00